Shoryu Maru — JD2864 — position and weather

sailwx.info

Track history (hours):
 
Tides and Currents Weather Stations Pressure Air Temp Water Temp Dewpoint Dewpoint Depression Visibility Wind Speed Wind Dir Waves Ship Positions

Shoryu Maru

Last reported at 2017-Dec-11 07:30 UTC. Time now 2017-Dec-11 07:51 UTC.
Position N 35°19' E 139°44'.

Length 68 m; draft 3.9 m.

Type: Tanker. MMSI: 431000689.

Date/timePositionNaut miles runAvg speedWind from/ knotsBaromVisibWave heightAir tempDewpointWater temp
2017-Dec-11 07:30N 35°19' E 139°44'510.9
2017-Dec-11 07:00N 35°24' E 139°43'510.9
2017-Dec-11 06:30N 35°27' E 139°48'611.2
2017-Dec-11 05:59N 35°31' E 139°54'511.2
2017-Dec-11 05:30N 35°32' E 140°00'2 4.9
2017-Dec-11 05:00N 35°32' E 140°03'0 0.0
2017-Dec-11 04:29N 35°32' E 140°03'0 0.0
2017-Dec-11 04:00N 35°32' E 140°03'0 0.0
2017-Dec-11 03:30N 35°32' E 140°03'0 0.0
2017-Dec-11 03:00N 35°32' E 140°03'0 0.0
2017-Dec-11 02:29N 35°32' E 140°03'0 0.0
2017-Dec-11 02:00N 35°32' E 140°03'0 0.0
2017-Dec-11 01:30N 35°32' E 140°03'0 0.0
2017-Dec-11 01:00N 35°32' E 140°03'0 0.0
2017-Dec-11 00:30N 35°32' E 140°03'0 0.0
2017-Dec-10 23:59N 35°32' E 140°03'3 6.0
2017-Dec-10 23:31N 35°31' E 140°00'510.6
2017-Dec-10 23:00N 35°28' E 139°55'0 0.1
2017-Dec-10 22:29N 35°28' E 139°55'0 0.0
2017-Dec-10 22:00N 35°28' E 139°55'0 0.0
2017-Dec-10 21:31N 35°28' E 139°55'0 0.0
2017-Dec-10 21:01N 35°28' E 139°55'0 0.0
2017-Dec-10 20:30N 35°28' E 139°55'0 0.0
2017-Dec-10 20:00N 35°28' E 139°55'0 0.0
2017-Dec-10 19:31N 35°28' E 139°55'0 0.0
2017-Dec-10 19:00N 35°28' E 139°55'0 0.0
2017-Dec-10 18:31N 35°28' E 139°55'0 0.0
2017-Dec-10 18:00N 35°28' E 139°55'0 0.1
2017-Dec-10 17:30N 35°28' E 139°55'0 0.1
2017-Dec-10 17:00N 35°28' E 139°55'0 0.0
2017-Dec-10 16:30N 35°28' E 139°55'0 0.0
2017-Dec-10 16:00N 35°28' E 139°55'0 0.0
2017-Dec-10 15:30N 35°28' E 139°55'0 0.0
2017-Dec-10 15:00N 35°28' E 139°55'0 0.0
2017-Dec-10 14:31N 35°28' E 139°55'0 0.0
2017-Dec-10 14:00N 35°28' E 139°55'0 0.0
2017-Dec-10 13:30N 35°28' E 139°55'0 0.0
2017-Dec-10 13:00N 35°28' E 139°55'0 0.0
2017-Dec-10 12:31N 35°28' E 139°55'0 0.0
2017-Dec-10 12:00N 35°28' E 139°55'2 4.7
2017-Dec-10 11:30N 35°28' E 139°52'612.8
2017-Dec-10 11:00N 35°24' E 139°46'612.0
2017-Dec-10 10:30N 35°18' E 139°45'611.9
2017-Dec-10 10:00N 35°12' E 139°47'612.3
2017-Dec-10 09:30N 35°06' E 139°45'612.2
2017-Dec-10 09:00N 35°02' E 139°40'713.3
2017-Dec-10 08:30N 34°58' E 139°33'2014.4
2017-Dec-10 07:08N 34°46' E 139°14'714.7
2017-Dec-10 06:38N 34°41' E 139°07'713.4
2017-Dec-10 06:05N 34°37' E 139°00'312.8
2017-Dec-10 05:51N 34°36' E 138°57'1212.5
2017-Dec-10 04:52N 34°37' E 138°42'412.4
2017-Dec-10 04:30N 34°41' E 138°39'611.3
2017-Dec-10 04:00N 34°46' E 138°36'612.2
2017-Dec-10 03:30N 34°52' E 138°35'612.4
2017-Dec-10 03:00N 34°58' E 138°34'5 9.5
2017-Dec-10 02:30N 35°02' E 138°30'0 0.2
2017-Dec-10 02:00N 35°02' E 138°30'0 0.0
2017-Dec-10 01:30N 35°02' E 138°30'0 0.0
2017-Dec-10 01:00N 35°02' E 138°30'0 0.0
2017-Dec-10 00:30N 35°02' E 138°30'0 0.0
2017-Dec-10 00:00N 35°02' E 138°30'0 0.0
2017-Dec-09 23:30N 35°02' E 138°30'0 0.0
2017-Dec-09 22:57N 35°02' E 138°30'0 0.0
2017-Dec-09 22:30N 35°02' E 138°30'0 0.0
2017-Dec-09 22:00N 35°02' E 138°30'0 0.0
2017-Dec-09 21:30N 35°02' E 138°30'0 0.0
2017-Dec-09 21:00N 35°02' E 138°30'0 0.0
2017-Dec-09 20:30N 35°02' E 138°30'0 0.0
2017-Dec-09 20:00N 35°02' E 138°30'0 0.0
2017-Dec-09 19:30N 35°02' E 138°30'0 0.0
2017-Dec-09 19:00N 35°02' E 138°30'0 0.0
2017-Dec-09 18:30N 35°02' E 138°30'0 0.0
2017-Dec-09 18:00N 35°02' E 138°30'0 0.0
2017-Dec-09 17:30N 35°02' E 138°30'0 0.0
2017-Dec-09 17:00N 35°02' E 138°30'0 0.0
2017-Dec-09 16:30N 35°02' E 138°30'0 0.0
2017-Dec-09 16:00N 35°02' E 138°30'0 0.0
2017-Dec-09 15:30N 35°02' E 138°30'0 0.0
2017-Dec-09 15:00N 35°02' E 138°30'0 0.0
2017-Dec-09 14:30N 35°02' E 138°30'0 0.0
2017-Dec-09 14:00N 35°02' E 138°30'0 0.0
2017-Dec-09 13:30N 35°02' E 138°30'0 0.0
2017-Dec-09 13:00N 35°02' E 138°30'0 0.0
2017-Dec-09 12:30N 35°02' E 138°30'0 0.0
2017-Dec-09 12:00N 35°02' E 138°30'0 0.0
2017-Dec-09 11:30N 35°02' E 138°30'0 0.0
2017-Dec-09 11:00N 35°02' E 138°30'0 0.0
2017-Dec-09 10:30N 35°02' E 138°30'0 0.0
2017-Dec-09 10:00N 35°02' E 138°30'0 0.0
2017-Dec-09 09:30N 35°02' E 138°30'0 0.0
2017-Dec-09 09:00N 35°02' E 138°30'0 0.0
2017-Dec-09 08:30N 35°02' E 138°30'0 0.0
2017-Dec-09 08:00N 35°02' E 138°30'0 0.0
2017-Dec-09 07:30N 35°02' E 138°30'0 0.0
2017-Dec-09 07:01N 35°02' E 138°30'3 6.0
2017-Dec-09 06:30N 35°00' E 138°33'612.2
2017-Dec-09 06:00N 34°54' E 138°30'612.2
2017-Dec-09 05:29N 34°49' E 138°26'611.9
2017-Dec-09 05:00N 34°44' E 138°24'712.0
2017-Dec-09 04:25N 34°37' E 138°20'511.7
2017-Dec-09 04:00N 34°33' E 138°16'612.9
2017-Dec-09 03:30N 34°32' E 138°08'813.3
2017-Dec-09 02:53N 34°31' E 137°59'16110.2
2017-Dec-08 11:04N 34°05' E 134°46'1113.5
2017-Dec-08 10:15N 34°14' E 134°39'512.7
2017-Dec-08 09:50N 34°20' E 134°38'712.5
2017-Dec-08 09:16N 34°27' E 134°38'18 3.3
2017-Dec-08 03:41N 34°45' E 134°36'2 9.8
2017-Dec-08 03:30N 34°44' E 134°37'0 0.2
2017-Dec-08 02:37N 34°44' E 134°38'0 0.0
2017-Dec-08 00:55N 34°44' E 134°38'1 1.7
2017-Dec-08 00:30N 34°44' E 134°38'5 8.0
2017-Dec-07 23:56N 34°46' E 134°43'0 0.1
2017-Dec-07 23:14N 34°46' E 134°43'0 0.0
2017-Dec-07 22:56N 34°46' E 134°43'0 0.0
2017-Dec-07 22:26N 34°46' E 134°43'0 0.0
2017-Dec-07 21:56N 34°46' E 134°43'0 0.0
2017-Dec-07 21:26N 34°46' E 134°43'0 0.0
2017-Dec-07 20:56N 34°46' E 134°43'0 0.0
2017-Dec-07 20:29N 34°46' E 134°43'0 0.0
2017-Dec-07 19:59N 34°46' E 134°43'0 0.0
2017-Dec-07 19:20N 34°46' E 134°43'0 0.0
2017-Dec-07 18:50N 34°46' E 134°43'0 0.0
2017-Dec-07 18:08N 34°46' E 134°43'0 0.0
2017-Dec-07 17:50N 34°46' E 134°43'0 0.0
2017-Dec-07 17:26N 34°46' E 134°43'0 0.0
2017-Dec-07 16:56N 34°46' E 134°43'0 0.0
2017-Dec-07 16:20N 34°46' E 134°43'0 0.1
2017-Dec-07 15:56N 34°46' E 134°43'0 0.0
2017-Dec-07 15:02N 34°46' E 134°43'0 0.0
2017-Dec-07 14:44N 34°46' E 134°43'0 0.0
2017-Dec-07 14:26N 34°46' E 134°43'0 0.0
2017-Dec-07 13:56N 34°46' E 134°43'0 0.0
2017-Dec-07 13:26N 34°46' E 134°43'0 0.0
2017-Dec-07 12:44N 34°46' E 134°43'0 0.0
2017-Dec-07 12:26N 34°46' E 134°43'0 0.0
2017-Dec-07 11:50N 34°46' E 134°43'0 0.1
2017-Dec-07 11:20N 34°46' E 134°43'0 0.0
2017-Dec-07 10:50N 34°46' E 134°43'0 0.0
2017-Dec-07 05:50N 34°46' E 134°43'0 0.0
2017-Dec-07 04:44N 34°46' E 134°43'0 0.1
2017-Dec-07 03:56N 34°46' E 134°43'0 0.0
2017-Dec-07 03:20N 34°46' E 134°43'0 0.0
2017-Dec-07 02:50N 34°46' E 134°43'0 0.0
2017-Dec-07 02:29N 34°46' E 134°43'0 0.0
2017-Dec-07 01:02N 34°46' E 134°43'0 0.0
2017-Dec-07 00:56N 34°46' E 134°43'0 0.0
2017-Dec-07 00:26N 34°46' E 134°43'0 0.0
2017-Dec-06 23:56N 34°46' E 134°43'0 0.0
2017-Dec-06 23:26N 34°46' E 134°43'0 0.0
2017-Dec-06 23:00N 34°46' E 134°43'1 1.6
2017-Dec-06 22:30N 34°45' E 134°43'510.4
2017-Dec-06 22:00N 34°41' E 134°46'612.0
2017-Dec-06 21:30N 34°38' E 134°53'611.6
2017-Dec-06 21:00N 34°37' E 134°60'  
2017-Dec-04 10:23N 35°33' E 140°05'0 0.0
2017-Dec-04 09:53N 35°33' E 140°05'0 0.0
2017-Dec-04 09:20N 35°33' E 140°05'0 0.0
2017-Dec-04 08:56N 35°33' E 140°05'0 0.0
2017-Dec-04 08:20N 35°33' E 140°05'0 0.0
2017-Dec-04 07:56N 35°33' E 140°05'0 0.0
2017-Dec-04 07:29N 35°33' E 140°05'3 5.8
2017-Dec-04 07:00N 35°32' E 140°02'612.4
2017-Dec-04 06:30N 35°30' E 139°55'612.5
2017-Dec-04 06:00N 35°26' E 139°49'612.5
2017-Dec-04 05:30N 35°21' E 139°45'611.9
2017-Dec-04 05:00N 35°15' E 139°47'612.3
2017-Dec-04 04:30N 35°09' E 139°46'612.0
2017-Dec-04 04:00N 35°05' E 139°41'612.6
2017-Dec-04 03:30N 35°00' E 139°35'714.6
2017-Dec-04 03:00N 34°56' E 139°28'2614.5
2017-Dec-04 01:14N 34°39' E 139°04'413.4
2017-Dec-04 00:55N 34°37' E 138°60'1812.9
2017-Dec-03 23:31N 34°33' E 138°38'112.8
2017-Dec-03 23:25N 34°33' E 138°37'1813.0
2017-Dec-03 22:02N 34°30' E 138°15'312.5
2017-Dec-03 21:49N 34°30' E 138°12'512.7
2017-Dec-03 21:27N 34°29' E 138°07'612.9
2017-Dec-03 20:59N 34°27' E 137°59'16110.5
2017-Dec-03 05:42N 34°05' E 134°47'1314.1
2017-Dec-03 04:45N 34°16' E 134°38'313.4
2017-Dec-03 04:31N 34°20' E 134°38'712.9
2017-Dec-03 04:00N 34°26' E 134°38'1812.7
2017-Dec-03 02:35N 34°44' E 134°37'112.4
2017-Dec-03 02:30N 34°45' E 134°36'1 0.4
2017-Dec-02 23:04N 34°46' E 134°35'0 3.8
2017-Dec-02 23:00N 34°46' E 134°35'1 1.5
2017-Dec-02 22:25N 34°45' E 134°36'0 0.0
2017-Dec-02 21:55N 34°45' E 134°36'0 0.0
2017-Dec-02 21:25N 34°45' E 134°36'0 0.0
2017-Dec-02 20:55N 34°45' E 134°36'0 0.0
2017-Dec-02 20:25N 34°45' E 134°36'0 0.0
2017-Dec-02 19:55N 34°45' E 134°36'0 0.1
2017-Dec-02 19:25N 34°45' E 134°36'0 0.0
2017-Dec-02 18:55N 34°45' E 134°36'0 0.0
2017-Dec-02 17:37N 34°45' E 134°36'0 0.0
2017-Dec-02 17:25N 34°45' E 134°36'0 0.0
2017-Dec-02 16:49N 34°45' E 134°36'0 0.0
2017-Dec-02 16:25N 34°45' E 134°36'0 0.0
2017-Dec-02 15:55N 34°45' E 134°36'0 0.0
2017-Dec-02 15:30N 34°45' E 134°36'4 7.9
2017-Dec-02 15:00N 34°43' E 134°40'611.4
2017-Dec-02 14:30N 34°41' E 134°46'510.4
2017-Dec-02 14:01N 34°38' E 134°52'5 9.7
2017-Dec-02 13:31N 34°37' E 134°58'510.5
2017-Dec-02 13:00N 34°36' E 135°04'510.9
2017-Dec-02 12:31N 34°30' E 135°04'612.0
2017-Dec-02 12:00N 34°25' E 135°02'611.9
2017-Dec-02 11:30N 34°19' E 134°60'612.2
2017-Dec-02 11:00N 34°13' E 134°60'612.0
2017-Dec-02 10:30N 34°07' E 135°00'612.3
2017-Dec-02 10:00N 34°01' E 135°01'146 9.2
2017-Dec-01 18:05N 34°32' E 137°54'310.5
2017-Dec-01 17:50N 34°32' E 137°57'410.6
2017-Dec-01 17:25N 34°32' E 138°02'1610.0
2017-Dec-01 15:47N 34°33' E 138°22'4 8.7
2017-Dec-01 15:19N 34°33' E 138°27'3 8.5
2017-Dec-01 15:00N 34°33' E 138°30'5 8.3
2017-Dec-01 14:24N 34°34' E 138°36'3 7.9
2017-Dec-01 14:00N 34°34' E 138°40'5 8.3
2017-Dec-01 13:21N 34°35' E 138°47'3 8.3
2017-Dec-01 13:00N 34°35' E 138°50'4 8.1
2017-Dec-01 12:30N 34°36' E 138°55'6 9.5
2017-Dec-01 11:54N 34°39' E 139°01'410.6
2017-Dec-01 11:30N 34°43' E 139°04'611.8
2017-Dec-01 11:00N 34°47' E 139°08'510.9
2017-Dec-01 10:30N 34°52' E 139°12'510.7
2017-Dec-01 10:00N 34°56' E 139°17'611.4
2017-Dec-01 09:30N 35°00' E 139°21'611.5
2017-Dec-01 09:00N 35°02' E 139°27'611.8
2017-Dec-01 08:31N 35°04' E 139°34'612.1
2017-Dec-01 08:00N 35°07' E 139°41'  
Track history (hours):
 
Tides and Currents Weather Stations Pressure Air Temp Water Temp Dewpoint Dewpoint Depression Visibility Wind Speed Wind Dir Waves Ship Positions

Shoryu Maru

Last reported at 2017-Dec-11 07:30 UTC. Time now 2017-Dec-11 07:51 UTC.
Position N 35°19' E 139°44'.

Length 68 m; draft 3.9 m.

Type: Tanker. MMSI: 431000689.

Date/timePositionNaut miles runAvg speedWind from/ knotsBaromVisibWave heightAir tempDewpointWater temp
2017-Dec-11 07:30N 35°19' E 139°44'510.9
2017-Dec-11 07:00N 35°24' E 139°43'510.9
2017-Dec-11 06:30N 35°27' E 139°48'611.2
2017-Dec-11 05:59N 35°31' E 139°54'511.2
2017-Dec-11 05:30N 35°32' E 140°00'2 4.9
2017-Dec-11 05:00N 35°32' E 140°03'0 0.0
2017-Dec-11 04:29N 35°32' E 140°03'0 0.0
2017-Dec-11 04:00N 35°32' E 140°03'0 0.0
2017-Dec-11 03:30N 35°32' E 140°03'0 0.0
2017-Dec-11 03:00N 35°32' E 140°03'0 0.0
2017-Dec-11 02:29N 35°32' E 140°03'0 0.0
2017-Dec-11 02:00N 35°32' E 140°03'0 0.0
2017-Dec-11 01:30N 35°32' E 140°03'0 0.0
2017-Dec-11 01:00N 35°32' E 140°03'0 0.0
2017-Dec-11 00:30N 35°32' E 140°03'0 0.0
2017-Dec-10 23:59N 35°32' E 140°03'3 6.0
2017-Dec-10 23:31N 35°31' E 140°00'510.6
2017-Dec-10 23:00N 35°28' E 139°55'0 0.1
2017-Dec-10 22:29N 35°28' E 139°55'0 0.0
2017-Dec-10 22:00N 35°28' E 139°55'0 0.0
2017-Dec-10 21:31N 35°28' E 139°55'0 0.0
2017-Dec-10 21:01N 35°28' E 139°55'0 0.0
2017-Dec-10 20:30N 35°28' E 139°55'0 0.0
2017-Dec-10 20:00N 35°28' E 139°55'0 0.0
2017-Dec-10 19:31N 35°28' E 139°55'0 0.0
2017-Dec-10 19:00N 35°28' E 139°55'0 0.0
2017-Dec-10 18:31N 35°28' E 139°55'0 0.0
2017-Dec-10 18:00N 35°28' E 139°55'0 0.1
2017-Dec-10 17:30N 35°28' E 139°55'0 0.1
2017-Dec-10 17:00N 35°28' E 139°55'0 0.0
2017-Dec-10 16:30N 35°28' E 139°55'0 0.0
2017-Dec-10 16:00N 35°28' E 139°55'0 0.0
2017-Dec-10 15:30N 35°28' E 139°55'0 0.0
2017-Dec-10 15:00N 35°28' E 139°55'0 0.0
2017-Dec-10 14:31N 35°28' E 139°55'0 0.0
2017-Dec-10 14:00N 35°28' E 139°55'0 0.0
2017-Dec-10 13:30N 35°28' E 139°55'0 0.0
2017-Dec-10 13:00N 35°28' E 139°55'0 0.0
2017-Dec-10 12:31N 35°28' E 139°55'0 0.0
2017-Dec-10 12:00N 35°28' E 139°55'2 4.7
2017-Dec-10 11:30N 35°28' E 139°52'612.8
2017-Dec-10 11:00N 35°24' E 139°46'612.0
2017-Dec-10 10:30N 35°18' E 139°45'611.9
2017-Dec-10 10:00N 35°12' E 139°47'612.3
2017-Dec-10 09:30N 35°06' E 139°45'612.2
2017-Dec-10 09:00N 35°02' E 139°40'713.3
2017-Dec-10 08:30N 34°58' E 139°33'2014.4
2017-Dec-10 07:08N 34°46' E 139°14'714.7
2017-Dec-10 06:38N 34°41' E 139°07'713.4
2017-Dec-10 06:05N 34°37' E 139°00'312.8
2017-Dec-10 05:51N 34°36' E 138°57'1212.5
2017-Dec-10 04:52N 34°37' E 138°42'412.4
2017-Dec-10 04:30N 34°41' E 138°39'611.3
2017-Dec-10 04:00N 34°46' E 138°36'612.2
2017-Dec-10 03:30N 34°52' E 138°35'612.4
2017-Dec-10 03:00N 34°58' E 138°34'5 9.5
2017-Dec-10 02:30N 35°02' E 138°30'0 0.2
2017-Dec-10 02:00N 35°02' E 138°30'0 0.0
2017-Dec-10 01:30N 35°02' E 138°30'0 0.0
2017-Dec-10 01:00N 35°02' E 138°30'0 0.0
2017-Dec-10 00:30N 35°02' E 138°30'0 0.0
2017-Dec-10 00:00N 35°02' E 138°30'0 0.0
2017-Dec-09 23:30N 35°02' E 138°30'0 0.0
2017-Dec-09 22:57N 35°02' E 138°30'0 0.0
2017-Dec-09 22:30N 35°02' E 138°30'0 0.0
2017-Dec-09 22:00N 35°02' E 138°30'0 0.0
2017-Dec-09 21:30N 35°02' E 138°30'0 0.0
2017-Dec-09 21:00N 35°02' E 138°30'0 0.0
2017-Dec-09 20:30N 35°02' E 138°30'0 0.0
2017-Dec-09 20:00N 35°02' E 138°30'0 0.0
2017-Dec-09 19:30N 35°02' E 138°30'0 0.0
2017-Dec-09 19:00N 35°02' E 138°30'0 0.0
2017-Dec-09 18:30N 35°02' E 138°30'0 0.0
2017-Dec-09 18:00N 35°02' E 138°30'0 0.0
2017-Dec-09 17:30N 35°02' E 138°30'0 0.0
2017-Dec-09 17:00N 35°02' E 138°30'0 0.0
2017-Dec-09 16:30N 35°02' E 138°30'0 0.0
2017-Dec-09 16:00N 35°02' E 138°30'0 0.0
2017-Dec-09 15:30N 35°02' E 138°30'0 0.0
2017-Dec-09 15:00N 35°02' E 138°30'0 0.0
2017-Dec-09 14:30N 35°02' E 138°30'0 0.0
2017-Dec-09 14:00N 35°02' E 138°30'0 0.0
2017-Dec-09 13:30N 35°02' E 138°30'0 0.0
2017-Dec-09 13:00N 35°02' E 138°30'0 0.0
2017-Dec-09 12:30N 35°02' E 138°30'0 0.0
2017-Dec-09 12:00N 35°02' E 138°30'0 0.0
2017-Dec-09 11:30N 35°02' E 138°30'0 0.0
2017-Dec-09 11:00N 35°02' E 138°30'0 0.0
2017-Dec-09 10:30N 35°02' E 138°30'0 0.0
2017-Dec-09 10:00N 35°02' E 138°30'0 0.0
2017-Dec-09 09:30N 35°02' E 138°30'0 0.0
2017-Dec-09 09:00N 35°02' E 138°30'0 0.0
2017-Dec-09 08:30N 35°02' E 138°30'0 0.0
2017-Dec-09 08:00N 35°02' E 138°30'0 0.0
2017-Dec-09 07:30N 35°02' E 138°30'0 0.0
2017-Dec-09 07:01N 35°02' E 138°30'3 6.0
2017-Dec-09 06:30N 35°00' E 138°33'612.2
2017-Dec-09 06:00N 34°54' E 138°30'612.2
2017-Dec-09 05:29N 34°49' E 138°26'611.9
2017-Dec-09 05:00N 34°44' E 138°24'712.0
2017-Dec-09 04:25N 34°37' E 138°20'511.7
2017-Dec-09 04:00N 34°33' E 138°16'612.9
2017-Dec-09 03:30N 34°32' E 138°08'813.3
2017-Dec-09 02:53N 34°31' E 137°59'16110.2
2017-Dec-08 11:04N 34°05' E 134°46'1113.5
2017-Dec-08 10:15N 34°14' E 134°39'512.7
2017-Dec-08 09:50N 34°20' E 134°38'712.5
2017-Dec-08 09:16N 34°27' E 134°38'18 3.3
2017-Dec-08 03:41N 34°45' E 134°36'2 9.8
2017-Dec-08 03:30N 34°44' E 134°37'0 0.2
2017-Dec-08 02:37N 34°44' E 134°38'0 0.0
2017-Dec-08 00:55N 34°44' E 134°38'1 1.7
2017-Dec-08 00:30N 34°44' E 134°38'5 8.0
2017-Dec-07 23:56N 34°46' E 134°43'0 0.1
2017-Dec-07 23:14N 34°46' E 134°43'0 0.0
2017-Dec-07 22:56N 34°46' E 134°43'0 0.0
2017-Dec-07 22:26N 34°46' E 134°43'0 0.0
2017-Dec-07 21:56N 34°46' E 134°43'0 0.0
2017-Dec-07 21:26N 34°46' E 134°43'0 0.0
2017-Dec-07 20:56N 34°46' E 134°43'0 0.0
2017-Dec-07 20:29N 34°46' E 134°43'0 0.0
2017-Dec-07 19:59N 34°46' E 134°43'0 0.0
2017-Dec-07 19:20N 34°46' E 134°43'0 0.0
2017-Dec-07 18:50N 34°46' E 134°43'0 0.0
2017-Dec-07 18:08N 34°46' E 134°43'0 0.0
2017-Dec-07 17:50N 34°46' E 134°43'0 0.0
2017-Dec-07 17:26N 34°46' E 134°43'0 0.0
2017-Dec-07 16:56N 34°46' E 134°43'0 0.0
2017-Dec-07 16:20N 34°46' E 134°43'0 0.1
2017-Dec-07 15:56N 34°46' E 134°43'0 0.0
2017-Dec-07 15:02N 34°46' E 134°43'0 0.0
2017-Dec-07 14:44N 34°46' E 134°43'0 0.0
2017-Dec-07 14:26N 34°46' E 134°43'0 0.0
2017-Dec-07 13:56N 34°46' E 134°43'0 0.0
2017-Dec-07 13:26N 34°46' E 134°43'0 0.0
2017-Dec-07 12:44N 34°46' E 134°43'0 0.0
2017-Dec-07 12:26N 34°46' E 134°43'0 0.0
2017-Dec-07 11:50N 34°46' E 134°43'0 0.1
2017-Dec-07 11:20N 34°46' E 134°43'0 0.0
2017-Dec-07 10:50N 34°46' E 134°43'0 0.0
2017-Dec-07 05:50N 34°46' E 134°43'0 0.0
2017-Dec-07 04:44N 34°46' E 134°43'0 0.1
2017-Dec-07 03:56N 34°46' E 134°43'0 0.0
2017-Dec-07 03:20N 34°46' E 134°43'0 0.0
2017-Dec-07 02:50N 34°46' E 134°43'0 0.0
2017-Dec-07 02:29N 34°46' E 134°43'0 0.0
2017-Dec-07 01:02N 34°46' E 134°43'0 0.0
2017-Dec-07 00:56N 34°46' E 134°43'0 0.0
2017-Dec-07 00:26N 34°46' E 134°43'0 0.0
2017-Dec-06 23:56N 34°46' E 134°43'0 0.0
2017-Dec-06 23:26N 34°46' E 134°43'0 0.0
2017-Dec-06 23:00N 34°46' E 134°43'1 1.6
2017-Dec-06 22:30N 34°45' E 134°43'510.4
2017-Dec-06 22:00N 34°41' E 134°46'612.0
2017-Dec-06 21:30N 34°38' E 134°53'611.6
2017-Dec-06 21:00N 34°37' E 134°60'  
2017-Dec-04 10:23N 35°33' E 140°05'0 0.0
2017-Dec-04 09:53N 35°33' E 140°05'0 0.0
2017-Dec-04 09:20N 35°33' E 140°05'0 0.0
2017-Dec-04 08:56N 35°33' E 140°05'0 0.0
2017-Dec-04 08:20N 35°33' E 140°05'0 0.0
2017-Dec-04 07:56N 35°33' E 140°05'0 0.0
2017-Dec-04 07:29N 35°33' E 140°05'3 5.8
2017-Dec-04 07:00N 35°32' E 140°02'612.4
2017-Dec-04 06:30N 35°30' E 139°55'612.5
2017-Dec-04 06:00N 35°26' E 139°49'612.5
2017-Dec-04 05:30N 35°21' E 139°45'611.9
2017-Dec-04 05:00N 35°15' E 139°47'612.3
2017-Dec-04 04:30N 35°09' E 139°46'612.0
2017-Dec-04 04:00N 35°05' E 139°41'612.6
2017-Dec-04 03:30N 35°00' E 139°35'714.6
2017-Dec-04 03:00N 34°56' E 139°28'2614.5
2017-Dec-04 01:14N 34°39' E 139°04'413.4
2017-Dec-04 00:55N 34°37' E 138°60'1812.9
2017-Dec-03 23:31N 34°33' E 138°38'112.8
2017-Dec-03 23:25N 34°33' E 138°37'1813.0
2017-Dec-03 22:02N 34°30' E 138°15'312.5
2017-Dec-03 21:49N 34°30' E 138°12'512.7
2017-Dec-03 21:27N 34°29' E 138°07'612.9
2017-Dec-03 20:59N 34°27' E 137°59'16110.5
2017-Dec-03 05:42N 34°05' E 134°47'1314.1
2017-Dec-03 04:45N 34°16' E 134°38'313.4
2017-Dec-03 04:31N 34°20' E 134°38'712.9
2017-Dec-03 04:00N 34°26' E 134°38'1812.7
2017-Dec-03 02:35N 34°44' E 134°37'112.4
2017-Dec-03 02:30N 34°45' E 134°36'1 0.4
2017-Dec-02 23:04N 34°46' E 134°35'0 3.8
2017-Dec-02 23:00N 34°46' E 134°35'1 1.5
2017-Dec-02 22:25N 34°45' E 134°36'0 0.0
2017-Dec-02 21:55N 34°45' E 134°36'0 0.0
2017-Dec-02 21:25N 34°45' E 134°36'0 0.0
2017-Dec-02 20:55N 34°45' E 134°36'0 0.0
2017-Dec-02 20:25N 34°45' E 134°36'0 0.0
2017-Dec-02 19:55N 34°45' E 134°36'0 0.1
2017-Dec-02 19:25N 34°45' E 134°36'0 0.0
2017-Dec-02 18:55N 34°45' E 134°36'0 0.0
2017-Dec-02 17:37N 34°45' E 134°36'0 0.0
2017-Dec-02 17:25N 34°45' E 134°36'0 0.0
2017-Dec-02 16:49N 34°45' E 134°36'0 0.0
2017-Dec-02 16:25N 34°45' E 134°36'0 0.0
2017-Dec-02 15:55N 34°45' E 134°36'0 0.0
2017-Dec-02 15:30N 34°45' E 134°36'4 7.9
2017-Dec-02 15:00N 34°43' E 134°40'611.4
2017-Dec-02 14:30N 34°41' E 134°46'510.4
2017-Dec-02 14:01N 34°38' E 134°52'5 9.7
2017-Dec-02 13:31N 34°37' E 134°58'510.5
2017-Dec-02 13:00N 34°36' E 135°04'510.9
2017-Dec-02 12:31N 34°30' E 135°04'612.0
2017-Dec-02 12:00N 34°25' E 135°02'611.9
2017-Dec-02 11:30N 34°19' E 134°60'612.2
2017-Dec-02 11:00N 34°13' E 134°60'612.0
2017-Dec-02 10:30N 34°07' E 135°00'612.3
2017-Dec-02 10:00N 34°01' E 135°01'146 9.2
2017-Dec-01 18:05N 34°32' E 137°54'310.5
2017-Dec-01 17:50N 34°32' E 137°57'410.6
2017-Dec-01 17:25N 34°32' E 138°02'1610.0
2017-Dec-01 15:47N 34°33' E 138°22'4 8.7
2017-Dec-01 15:19N 34°33' E 138°27'3 8.5
2017-Dec-01 15:00N 34°33' E 138°30'5 8.3
2017-Dec-01 14:24N 34°34' E 138°36'3 7.9
2017-Dec-01 14:00N 34°34' E 138°40'5 8.3
2017-Dec-01 13:21N 34°35' E 138°47'3 8.3
2017-Dec-01 13:00N 34°35' E 138°50'4 8.1
2017-Dec-01 12:30N 34°36' E 138°55'6 9.5
2017-Dec-01 11:54N 34°39' E 139°01'410.6
2017-Dec-01 11:30N 34°43' E 139°04'611.8
2017-Dec-01 11:00N 34°47' E 139°08'510.9
2017-Dec-01 10:30N 34°52' E 139°12'510.7
2017-Dec-01 10:00N 34°56' E 139°17'611.4
2017-Dec-01 09:30N 35°00' E 139°21'611.5
2017-Dec-01 09:00N 35°02' E 139°27'611.8
2017-Dec-01 08:31N 35°04' E 139°34'612.1
2017-Dec-01 08:00N 35°07' E 139°41'  

Dump ship's entire track history